Time;durP1;ratioP1;P1;durP2;ratioP2;P2;SDS_P1;SDS_P2;PMS_P1;PMS_P2;Temp;Humidity;BMP_temperature;BMP_pressure;BME280_temperature;BME280_humidity;BME280_pressure;Samples;Min_cycle;Max_cycle;Signal;HPM_P1;HPM_P2
2023/06/04 00:02:02;;;;;;;21.93;20.73;;;;;;;;;;5074473;28;20478;-78
2023/06/04 00:04:31;;;;;;;22.10;20.87;;;;;;;;;;5074864;28;20519;-77
2023/06/04 00:06:58;;;;;;;21.70;20.60;;;;;;;;;;5073974;28;20520;-76
2023/06/04 00:09:24;;;;;;;22.00;20.80;;;;;;;;;;5074889;28;20481;-77
2023/06/04 00:11:52;;;;;;;21.60;20.40;;;;;;;;;;5074805;28;20500;-77
2023/06/04 00:14:19;;;;;;;21.47;20.37;;;;;;;;;;5074780;28;20412;-78
2023/06/04 00:16:46;;;;;;;21.63;20.53;;;;;;;;;;5073994;28;20454;-77
2023/06/04 00:19:13;;;;;;;21.80;20.50;;;;;;;;;;5074646;28;20482;-77
2023/06/04 00:21:41;;;;;;;21.10;20.00;;;;;;;;;;5074685;28;21171;-78
2023/06/04 00:24:08;;;;;;;21.97;20.57;;;;;;;;;;5074361;28;20424;-78
2023/06/04 00:26:35;;;;;;;23.10;21.87;;;;;;;;;;5076647;28;20448;-78
2023/06/04 00:29:02;;;;;;;21.80;20.43;;;;;;;;;;5076809;28;20500;-78
2023/06/04 00:31:29;;;;;;;21.77;20.47;;;;;;;;;;5076168;28;20775;-78
2023/06/04 00:33:56;;;;;;;22.43;21.23;;;;;;;;;;5076441;28;20438;-77
2023/06/04 00:36:23;;;;;;;21.70;20.50;;;;;;;;;;5075880;28;20408;-77
2023/06/04 00:38:51;;;;;;;20.80;19.80;;;;;;;;;;5075404;28;20583;-77
2023/06/04 00:41:18;;;;;;;20.73;19.73;;;;;;;;;;5075783;28;20489;-77
2023/06/04 00:43:55;;;;;;;22.17;20.97;;;;;;;;;;5075526;28;20454;-77
2023/06/04 00:46:22;;;;;;;21.80;20.70;;;;;;;;;;5075501;28;20417;-77
2023/06/04 00:48:50;;;;;;;22.83;21.53;;;;;;;;;;5075342;28;20529;-77
2023/06/04 00:51:17;;;;;;;21.40;20.30;;;;;;;;;;5075005;28;20437;-76
2023/06/04 00:53:44;;;;;;;21.63;20.53;;;;;;;;;;5075016;28;20446;-77
2023/06/04 00:56:13;;;;;;;22.07;20.87;;;;;;;;;;5074150;28;20494;-78
2023/06/04 00:58:42;;;;;;;22.00;20.90;;;;;;;;;;5075218;28;20458;-77
2023/06/04 01:01:14;;;;;;;22.07;20.97;;;;;;;;;;5074282;28;20808;-77
2023/06/04 01:03:44;;;;;;;20.87;19.77;;;;;;;;;;5074845;28;20489;-77
2023/06/04 01:06:14;;;;;;;21.80;20.70;;;;;;;;;;5074223;28;20515;-77
2023/06/04 01:08:43;;;;;;;21.80;20.70;;;;;;;;;;5073896;28;20916;-76
2023/06/04 01:11:10;;;;;;;22.10;20.73;;;;;;;;;;5073937;28;20874;-77
2023/06/04 01:13:38;;;;;;;21.57;20.00;;;;;;;;;;5079482;28;20451;-76
2023/06/04 01:16:05;;;;;;;21.70;20.40;;;;;;;;;;5078801;28;20453;-77
2023/06/04 01:18:36;;;;;;;21.70;20.60;;;;;;;;;;5078229;28;20446;-78
2023/06/04 01:21:04;;;;;;;21.80;20.70;;;;;;;;;;5073716;28;20491;-77
2023/06/04 01:23:35;;;;;;;21.50;20.40;;;;;;;;;;5073657;28;20843;-78
2023/06/04 01:26:03;;;;;;;22.23;21.03;;;;;;;;;;5073974;28;20438;-79
2023/06/04 01:28:30;;;;;;;22.30;21.10;;;;;;;;;;5073806;28;20490;-77
2023/06/04 01:31:01;;;;;;;21.53;20.43;;;;;;;;;;5074377;28;20469;-77
2023/06/04 01:33:29;;;;;;;22.00;20.90;;;;;;;;;;5076138;28;20450;-77
2023/06/04 01:35:56;;;;;;;21.87;20.63;;;;;;;;;;5078729;28;20479;-77
2023/06/04 01:38:23;;;;;;;21.80;20.60;;;;;;;;;;5084022;28;20784;-76
2023/06/04 01:40:52;;;;;;;22.97;21.70;;;;;;;;;;5074626;28;20563;-77
2023/06/04 01:43:19;;;;;;;22.87;21.57;;;;;;;;;;5075072;28;20453;-79
2023/06/04 01:45:47;;;;;;;23.00;21.80;;;;;;;;;;5073472;28;20922;-76
2023/06/04 01:48:15;;;;;;;21.50;20.40;;;;;;;;;;5073660;28;20523;-76
2023/06/04 01:50:42;;;;;;;21.80;20.70;;;;;;;;;;5073485;28;20795;-76
2023/06/04 01:53:09;;;;;;;22.10;20.90;;;;;;;;;;5073274;28;20512;-76
2023/06/04 01:55:37;;;;;;;22.20;20.80;;;;;;;;;;5072779;28;20938;-76
2023/06/04 01:58:04;;;;;;;22.10;20.90;;;;;;;;;;5073610;28;20545;-76
2023/06/04 02:00:31;;;;;;;21.50;20.30;;;;;;;;;;5073042;28;20440;-76
2023/06/04 02:02:59;;;;;;;21.33;20.10;;;;;;;;;;5072943;28;20454;-76
2023/06/04 02:05:27;;;;;;;21.53;20.43;;;;;;;;;;5072735;28;20819;-76
2023/06/04 02:07:54;;;;;;;21.40;20.20;;;;;;;;;;5075533;28;20442;-76
2023/06/04 02:10:22;;;;;;;21.90;20.80;;;;;;;;;;5077098;28;20466;-76
2023/06/04 02:12:56;;;;;;;21.90;20.70;;;;;;;;;;5076853;28;20453;-76
2023/06/04 02:15:24;;;;;;;22.17;21.07;;;;;;;;;;5076815;28;20424;-76
2023/06/04 02:17:51;;;;;;;22.73;20.90;;;;;;;;;;5075878;28;20476;-79
2023/06/04 02:20:18;;;;;;;21.33;20.23;;;;;;;;;;5076617;28;20544;-76
2023/06/04 02:22:47;;;;;;;22.00;20.80;;;;;;;;;;5076206;28;21015;-76
2023/06/04 02:25:15;;;;;;;21.17;20.07;;;;;;;;;;5076292;28;20445;-76
2023/06/04 02:27:42;;;;;;;21.90;20.80;;;;;;;;;;5075737;28;20445;-76
2023/06/04 02:30:09;;;;;;;21.70;20.50;;;;;;;;;;5076271;28;20474;-76
2023/06/04 02:32:36;;;;;;;21.60;20.30;;;;;;;;;;5077153;28;20780;-77
2023/06/04 02:35:04;;;;;;;21.77;20.57;;;;;;;;;;5077863;28;20453;-76
2023/06/04 02:37:31;;;;;;;22.30;21.10;;;;;;;;;;5077227;28;20457;-75
2023/06/04 02:39:59;;;;;;;22.10;20.90;;;;;;;;;;5077847;28;20465;-76
2023/06/04 02:42:26;;;;;;;21.63;20.53;;;;;;;;;;5077592;28;20539;-76
2023/06/04 02:44:53;;;;;;;22.53;21.23;;;;;;;;;;5076368;28;20949;-77
2023/06/04 02:47:20;;;;;;;21.50;20.40;;;;;;;;;;5075535;28;21027;-76
2023/06/04 02:49:47;;;;;;;21.87;20.67;;;;;;;;;;5076142;28;20588;-76
2023/06/04 02:52:14;;;;;;;21.60;20.50;;;;;;;;;;5076182;28;20481;-76
2023/06/04 02:54:41;;;;;;;21.33;20.13;;;;;;;;;;5076224;28;20499;-76
2023/06/04 02:57:10;;;;;;;22.13;20.80;;;;;;;;;;5075694;28;20504;-76
2023/06/04 02:59:37;;;;;;;21.83;20.63;;;;;;;;;;5076120;28;20508;-77
2023/06/04 03:02:05;;;;;;;20.93;19.83;;;;;;;;;;5075874;28;20488;-76
2023/06/04 03:04:34;;;;;;;21.93;20.73;;;;;;;;;;5075986;28;20425;-76
2023/06/04 03:07:02;;;;;;;21.57;20.37;;;;;;;;;;5075605;28;20454;-77
2023/06/04 03:09:29;;;;;;;21.87;20.67;;;;;;;;;;5075857;28;20452;-77
2023/06/04 03:11:56;;;;;;;22.77;21.57;;;;;;;;;;5075502;28;20445;-76
2023/06/04 03:14:32;;;;;;;21.57;20.47;;;;;;;;;;5075059;28;20824;-76
2023/06/04 03:17:00;;;;;;;22.00;20.80;;;;;;;;;;5074300;28;20423;-75
2023/06/04 03:19:27;;;;;;;22.57;21.27;;;;;;;;;;5074002;28;20436;-75
2023/06/04 03:21:56;;;;;;;21.67;20.47;;;;;;;;;;5075535;28;20466;-75
2023/06/04 03:24:23;;;;;;;21.40;20.20;;;;;;;;;;5075166;28;20511;-75
2023/06/04 03:26:50;;;;;;;21.53;20.33;;;;;;;;;;5074526;28;20467;-75
2023/06/04 03:29:17;;;;;;;22.37;21.17;;;;;;;;;;5075022;28;20446;-76
2023/06/04 03:31:47;;;;;;;22.03;20.73;;;;;;;;;;5075457;28;20445;-76
2023/06/04 03:34:13;;;;;;;21.50;20.40;;;;;;;;;;5074712;28;20938;-77
2023/06/04 03:36:41;;;;;;;21.90;20.63;;;;;;;;;;5073997;28;20871;-76
2023/06/04 03:39:08;;;;;;;22.40;21.20;;;;;;;;;;5074274;28;20872;-76
2023/06/04 03:41:35;;;;;;;22.80;21.60;;;;;;;;;;5074331;28;20494;-76
2023/06/04 03:44:02;;;;;;;21.57;20.47;;;;;;;;;;5074732;28;20781;-76
2023/06/04 03:46:31;;;;;;;20.50;19.33;;;;;;;;;;5074157;28;20946;-77
2023/06/04 03:48:59;;;;;;;21.50;20.20;;;;;;;;;;5074624;28;20515;-76
2023/06/04 03:51:27;;;;;;;21.17;20.00;;;;;;;;;;5074424;28;20487;-76
2023/06/04 03:53:54;;;;;;;21.27;20.17;;;;;;;;;;5074354;28;20457;-76
2023/06/04 03:56:21;;;;;;;20.97;19.87;;;;;;;;;;5073879;28;20449;-76
2023/06/04 03:58:48;;;;;;;21.20;20.00;;;;;;;;;;5075513;28;20460;-77
2023/06/04 04:01:15;;;;;;;21.60;20.40;;;;;;;;;;5073784;28;20448;-77
2023/06/04 04:03:42;;;;;;;21.13;20.03;;;;;;;;;;5074410;28;20437;-77
2023/06/04 04:06:11;;;;;;;20.93;19.83;;;;;;;;;;5073704;28;20882;-76
2023/06/04 04:08:42;;;;;;;20.00;18.90;;;;;;;;;;5074246;28;20496;-77
2023/06/04 04:11:08;;;;;;;20.43;19.33;;;;;;;;;;5074129;28;20447;-76
2023/06/04 04:13:35;;;;;;;20.93;19.70;;;;;;;;;;5074083;28;20438;-76
2023/06/04 04:16:03;;;;;;;21.13;20.03;;;;;;;;;;5073466;28;20441;-76
2023/06/04 04:18:30;;;;;;;21.13;20.03;;;;;;;;;;5074012;28;20830;-76
2023/06/04 04:20:57;;;;;;;21.57;20.37;;;;;;;;;;5073926;28;20468;-76
2023/06/04 04:23:27;;;;;;;21.77;20.57;;;;;;;;;;5073821;28;20496;-76
2023/06/04 04:25:56;;;;;;;21.17;20.07;;;;;;;;;;5073320;28;20453;-76
2023/06/04 04:28:23;;;;;;;20.33;19.13;;;;;;;;;;5073864;28;20432;-76
2023/06/04 04:30:50;;;;;;;21.33;20.23;;;;;;;;;;5072681;28;20462;-75
2023/06/04 04:33:18;;;;;;;21.03;19.93;;;;;;;;;;5073626;28;20437;-75
2023/06/04 04:35:47;;;;;;;21.27;20.10;;;;;;;;;;5073100;28;20445;-76
2023/06/04 04:38:17;;;;;;;21.50;20.30;;;;;;;;;;5073476;28;20819;-75
2023/06/04 04:40:47;;;;;;;20.70;19.60;;;;;;;;;;5072832;28;20547;-76
2023/06/04 04:43:14;;;;;;;21.30;20.00;;;;;;;;;;5073548;28;20470;-75
2023/06/04 04:45:41;;;;;;;20.83;19.63;;;;;;;;;;5073561;28;21003;-76
2023/06/04 04:48:08;;;;;;;20.37;19.27;;;;;;;;;;5073696;28;20420;-76
2023/06/04 04:50:35;;;;;;;20.57;19.47;;;;;;;;;;5073385;28;20465;-76
2023/06/04 04:53:02;;;;;;;22.00;20.63;;;;;;;;;;5073421;28;20416;-76
2023/06/04 04:55:29;;;;;;;21.60;20.40;;;;;;;;;;5073574;28;20433;-76
2023/06/04 04:57:57;;;;;;;22.20;21.00;;;;;;;;;;5072919;28;20450;-76
2023/06/04 05:00:24;;;;;;;20.90;19.63;;;;;;;;;;5072816;28;20969;-75
2023/06/04 05:02:51;;;;;;;21.23;20.03;;;;;;;;;;5073285;28;20456;-76
2023/06/04 05:05:18;;;;;;;20.70;19.60;;;;;;;;;;5073457;28;20421;-76
2023/06/04 05:07:45;;;;;;;20.60;19.40;;;;;;;;;;5072712;28;21212;-77
2023/06/04 05:10:12;;;;;;;21.10;19.90;;;;;;;;;;5073455;28;20504;-75
2023/06/04 05:12:40;;;;;;;21.60;20.40;;;;;;;;;;5072438;28;20788;-77
2023/06/04 05:15:12;;;;;;;21.50;20.30;;;;;;;;;;5073677;28;20481;-77
2023/06/04 05:17:40;;;;;;;21.23;20.03;;;;;;;;;;5072794;28;20738;-78
2023/06/04 05:20:11;;;;;;;21.27;19.90;;;;;;;;;;5073075;28;20476;-77
2023/06/04 05:22:38;;;;;;;20.43;19.23;;;;;;;;;;5073264;28;20535;-77
2023/06/04 05:25:06;;;;;;;21.10;19.90;;;;;;;;;;5073535;28;20503;-76
2023/06/04 05:27:33;;;;;;;21.67;20.27;;;;;;;;;;5072598;28;20425;-77
2023/06/04 05:30:00;;;;;;;20.73;19.53;;;;;;;;;;5072952;28;20685;-76
2023/06/04 05:32:30;;;;;;;20.80;19.70;;;;;;;;;;5073041;28;20441;-76
2023/06/04 05:34:58;;;;;;;21.10;19.90;;;;;;;;;;5074346;28;20450;-78
2023/06/04 05:37:26;;;;;;;21.03;19.63;;;;;;;;;;5073653;28;20432;-76
2023/06/04 05:39:53;;;;;;;20.77;19.67;;;;;;;;;;5080852;28;20552;-77
2023/06/04 05:42:20;;;;;;;20.57;19.47;;;;;;;;;;5077955;28;20528;-76
2023/06/04 05:44:48;;;;;;;20.83;19.70;;;;;;;;;;5078278;28;20455;-77
2023/06/04 05:47:15;;;;;;;20.50;19.40;;;;;;;;;;5076584;28;20441;-77
2023/06/04 05:49:43;;;;;;;21.10;19.73;;;;;;;;;;5076921;28;20458;-77
2023/06/04 05:52:10;;;;;;;21.63;20.33;;;;;;;;;;5077165;28;20420;-77
2023/06/04 05:54:37;;;;;;;22.10;20.90;;;;;;;;;;5077175;28;20503;-77
2023/06/04 05:57:05;;;;;;;21.40;20.07;;;;;;;;;;5076192;28;20442;-76
2023/06/04 05:59:32;;;;;;;20.53;19.43;;;;;;;;;;5076698;28;20444;-76
2023/06/04 06:01:59;;;;;;;21.23;20.07;;;;;;;;;;5076676;28;20471;-75
2023/06/04 06:04:26;;;;;;;21.57;20.37;;;;;;;;;;5076744;28;20450;-77
2023/06/04 06:06:55;;;;;;;21.60;20.40;;;;;;;;;;5075754;28;20456;-76
2023/06/04 06:09:22;;;;;;;22.43;21.13;;;;;;;;;;5076620;28;20858;-76
2023/06/04 06:11:49;;;;;;;21.10;20.00;;;;;;;;;;5076557;28;20841;-77
2023/06/04 06:14:16;;;;;;;21.53;20.33;;;;;;;;;;5076497;28;20445;-76
2023/06/04 06:16:43;;;;;;;22.00;20.70;;;;;;;;;;5075645;28;20935;-76
2023/06/04 06:19:10;;;;;;;21.23;20.03;;;;;;;;;;5076320;28;20825;-76
2023/06/04 06:21:37;;;;;;;21.97;20.60;;;;;;;;;;5076695;28;20449;-76
2023/06/04 06:24:06;;;;;;;21.77;20.47;;;;;;;;;;5076247;28;20449;-77
2023/06/04 06:26:33;;;;;;;21.80;20.50;;;;;;;;;;5076452;28;20847;-81
2023/06/04 06:29:01;;;;;;;21.83;20.53;;;;;;;;;;5077184;28;20475;-83
2023/06/04 06:31:28;;;;;;;21.40;20.20;;;;;;;;;;5081373;28;20474;-81
2023/06/04 06:33:55;;;;;;;22.30;20.43;;;;;;;;;;5082093;28;20538;-82
2023/06/04 06:36:22;;;;;;;21.63;20.23;;;;;;;;;;5080734;28;20889;-82
2023/06/04 06:38:50;;;;;;;21.30;20.10;;;;;;;;;;5080711;28;20461;-83
2023/06/04 06:41:18;;;;;;;21.40;20.10;;;;;;;;;;5077770;28;20952;-84
2023/06/04 06:43:45;;;;;;;21.53;20.23;;;;;;;;;;5077966;28;20486;-84
2023/06/04 06:46:12;;;;;;;21.00;19.80;;;;;;;;;;5078047;28;20442;-84
2023/06/04 06:48:39;;;;;;;21.67;20.37;;;;;;;;;;5077773;28;20455;-84
2023/06/04 06:51:06;;;;;;;21.43;20.13;;;;;;;;;;5078440;28;20446;-84
2023/06/04 06:53:33;;;;;;;22.27;20.97;;;;;;;;;;5077246;28;20415;-83
2023/06/04 06:56:00;;;;;;;21.40;20.10;;;;;;;;;;5078028;28;20513;-84
2023/06/04 06:58:28;;;;;;;22.60;21.20;;;;;;;;;;5077971;28;20465;-84
2023/06/04 07:00:56;;;;;;;22.50;21.10;;;;;;;;;;5078209;28;20431;-84
2023/06/04 07:03:23;;;;;;;21.87;20.60;;;;;;;;;;5078435;28;20949;-85
2023/06/04 07:05:50;;;;;;;23.80;21.57;;;;;;;;;;5084797;28;20426;-86
2023/06/04 07:08:17;;;;;;;21.60;20.40;;;;;;;;;;5081043;28;20479;-85
2023/06/04 07:10:44;;;;;;;22.23;20.90;;;;;;;;;;5078439;28;20498;-85
2023/06/04 07:13:11;;;;;;;22.33;20.93;;;;;;;;;;5077775;28;20428;-82
2023/06/04 07:15:39;;;;;;;22.33;21.07;;;;;;;;;;5079306;28;20481;-85
2023/06/04 07:18:06;;;;;;;22.40;21.10;;;;;;;;;;5077203;28;20483;-83
2023/06/04 07:20:33;;;;;;;22.60;21.30;;;;;;;;;;5077239;28;20467;-85
2023/06/04 07:23:01;;;;;;;22.63;21.10;;;;;;;;;;5077073;28;20472;-84
2023/06/04 07:25:28;;;;;;;22.20;21.00;;;;;;;;;;5076904;28;20491;-83
2023/06/04 07:27:57;;;;;;;22.37;20.97;;;;;;;;;;5076543;28;20435;-84
2023/06/04 07:30:24;;;;;;;22.70;21.20;;;;;;;;;;5075633;28;20558;-77
2023/06/04 07:32:53;;;;;;;22.00;20.70;;;;;;;;;;5075091;28;20933;-76
2023/06/04 07:35:20;;;;;;;22.87;21.57;;;;;;;;;;5075301;28;20419;-77
2023/06/04 07:37:48;;;;;;;21.93;20.73;;;;;;;;;;5072718;28;20465;-77
2023/06/04 07:40:16;;;;;;;21.60;20.40;;;;;;;;;;5056125;28;20560;-76
2023/06/04 07:42:43;;;;;;;22.80;21.40;;;;;;;;;;5054911;28;20533;-79
2023/06/04 07:45:11;;;;;;;22.37;21.07;;;;;;;;;;5054402;28;20490;-77
2023/06/04 07:47:38;;;;;;;22.80;21.40;;;;;;;;;;5054215;28;20853;-78
2023/06/04 07:50:07;;;;;;;22.27;20.97;;;;;;;;;;5054912;28;20473;-77
2023/06/04 07:52:34;;;;;;;24.63;23.10;;;;;;;;;;5054624;28;20802;-78
2023/06/04 07:55:02;;;;;;;23.13;21.70;;;;;;;;;;5055455;28;20431;-78
2023/06/04 07:57:29;;;;;;;23.00;21.70;;;;;;;;;;5054884;28;20428;-78
2023/06/04 07:59:56;;;;;;;23.10;21.70;;;;;;;;;;5054796;28;20485;-78
2023/06/04 08:02:23;;;;;;;23.37;21.90;;;;;;;;;;5055121;28;20423;-79
2023/06/04 08:04:51;;;;;;;22.67;21.23;;;;;;;;;;5053917;28;20457;-78
2023/06/04 08:07:19;;;;;;;22.70;21.37;;;;;;;;;;5054361;28;20455;-78
2023/06/04 08:09:46;;;;;;;23.10;21.70;;;;;;;;;;5054429;28;20876;-78
2023/06/04 08:12:13;;;;;;;22.87;21.27;;;;;;;;;;5054109;28;20466;-78
2023/06/04 08:14:40;;;;;;;22.47;21.07;;;;;;;;;;5054911;28;20453;-77
2023/06/04 08:17:07;;;;;;;22.60;21.20;;;;;;;;;;5053582;28;20509;-78
2023/06/04 08:19:35;;;;;;;22.93;21.53;;;;;;;;;;5053905;28;20474;-77
2023/06/04 08:22:02;;;;;;;23.20;21.90;;;;;;;;;;5054734;28;20429;-78
2023/06/04 08:24:30;;;;;;;23.10;21.50;;;;;;;;;;5053367;28;20990;-76
2023/06/04 08:26:57;;;;;;;23.17;21.87;;;;;;;;;;5053274;28;20861;-75
2023/06/04 08:29:24;;;;;;;23.00;21.50;;;;;;;;;;5053059;28;20428;-75
2023/06/04 08:31:51;;;;;;;23.63;22.33;;;;;;;;;;5053367;28;20449;-75
2023/06/04 08:34:19;;;;;;;23.37;22.07;;;;;;;;;;5053366;28;20919;-75
2023/06/04 08:36:46;;;;;;;24.97;23.47;;;;;;;;;;5064616;28;20463;-78
2023/06/04 08:39:13;;;;;;;23.73;22.33;;;;;;;;;;5080136;28;20471;-77
2023/06/04 08:41:44;;;;;;;24.67;23.17;;;;;;;;;;5074454;28;20453;-78
2023/06/04 08:44:11;;;;;;;23.67;22.07;;;;;;;;;;5073215;28;21003;-80
2023/06/04 08:46:40;;;;;;;24.20;22.80;;;;;;;;;;5073388;28;20460;-78
2023/06/04 08:49:07;;;;;;;23.93;22.53;;;;;;;;;;5072944;28;20894;-77
2023/06/04 08:51:37;;;;;;;24.33;22.83;;;;;;;;;;5074590;28;20980;-78
2023/06/04 08:54:05;;;;;;;23.77;22.27;;;;;;;;;;5073420;28;20449;-75
2023/06/04 08:56:32;;;;;;;23.83;22.43;;;;;;;;;;5072300;28;20461;-76
2023/06/04 08:59:03;;;;;;;23.80;22.40;;;;;;;;;;5072761;28;20453;-76
2023/06/04 09:01:30;;;;;;;24.30;22.60;;;;;;;;;;5074160;28;20485;-76
2023/06/04 09:03:58;;;;;;;23.20;21.83;;;;;;;;;;5072667;28;20489;-76
2023/06/04 09:06:26;;;;;;;23.50;21.93;;;;;;;;;;5072688;28;20460;-78
2023/06/04 09:08:54;;;;;;;23.53;22.00;;;;;;;;;;5072468;28;20448;-76
2023/06/04 09:11:22;;;;;;;23.80;22.17;;;;;;;;;;5073000;28;20817;-77
2023/06/04 09:13:49;;;;;;;23.60;22.10;;;;;;;;;;5073832;28;20446;-77
2023/06/04 09:16:18;;;;;;;25.63;23.20;;;;;;;;;;5071811;28;20461;-76
2023/06/04 09:18:46;;;;;;;24.17;22.33;;;;;;;;;;5072955;28;21002;-76
2023/06/04 09:21:13;;;;;;;24.33;22.73;;;;;;;;;;5072523;28;20973;-76
2023/06/04 09:23:45;;;;;;;23.67;22.30;;;;;;;;;;5072790;28;20991;-76
2023/06/04 09:26:12;;;;;;;24.80;23.27;;;;;;;;;;5072296;28;20457;-76
2023/06/04 09:28:41;;;;;;;24.83;23.23;;;;;;;;;;5073268;28;20510;-76
2023/06/04 09:31:09;;;;;;;23.73;22.23;;;;;;;;;;5074356;28;20466;-76
2023/06/04 09:33:44;;;;;;;23.67;22.10;;;;;;;;;;5073559;28;20456;-81
2023/06/04 09:36:11;;;;;;;23.70;22.20;;;;;;;;;;5072233;28;20446;-75
2023/06/04 09:38:39;;;;;;;24.33;22.90;;;;;;;;;;5071919;28;20595;-75
2023/06/04 09:41:06;;;;;;;23.10;21.80;;;;;;;;;;5072733;28;20535;-76
2023/06/04 09:43:33;;;;;;;23.97;22.57;;;;;;;;;;5072905;28;20485;-76
2023/06/04 09:46:10;;;;;;;24.87;23.37;;;;;;;;;;5071864;28;20424;-75
2023/06/04 09:48:37;;;;;;;24.53;23.03;;;;;;;;;;5073094;28;20460;-76
2023/06/04 09:51:09;;;;;;;24.80;23.30;;;;;;;;;;5072331;28;20500;-77
2023/06/04 09:53:36;;;;;;;24.07;22.57;;;;;;;;;;5073240;28;20439;-77
2023/06/04 09:56:04;;;;;;;24.00;22.50;;;;;;;;;;5072750;28;20457;-77
2023/06/04 09:58:31;;;;;;;23.73;22.33;;;;;;;;;;5073370;28;20430;-79
2023/06/04 10:00:59;;;;;;;24.53;23.00;;;;;;;;;;5073654;28;20441;-78
2023/06/04 10:03:27;;;;;;;24.37;22.87;;;;;;;;;;5072726;28;20461;-76
2023/06/04 10:05:55;;;;;;;24.73;23.23;;;;;;;;;;5073646;28;20459;-78
2023/06/04 10:08:24;;;;;;;24.23;22.83;;;;;;;;;;5077033;28;20420;-75
2023/06/04 10:10:52;;;;;;;25.47;23.97;;;;;;;;;;5082373;28;20506;-78
2023/06/04 10:13:19;;;;;;;25.87;24.27;;;;;;;;;;5084891;28;20454;-75
2023/06/04 10:15:47;;;;;;;24.60;23.10;;;;;;;;;;5072756;28;20427;-76
2023/06/04 10:18:15;;;;;;;25.73;23.90;;;;;;;;;;5072677;28;20464;-76
2023/06/04 10:20:42;;;;;;;25.33;23.83;;;;;;;;;;5072221;28;20497;-75
2023/06/04 10:23:09;;;;;;;25.50;24.00;;;;;;;;;;5072190;28;20442;-75
2023/06/04 10:25:38;;;;;;;25.37;23.97;;;;;;;;;;5071896;28;20503;-76
2023/06/04 10:28:05;;;;;;;26.40;24.80;;;;;;;;;;5073550;28;20920;-82
2023/06/04 10:30:32;;;;;;;25.83;24.00;;;;;;;;;;5077361;28;20524;-78
2023/06/04 10:33:00;;;;;;;25.10;23.70;;;;;;;;;;5077303;28;20454;-76
2023/06/04 10:35:33;;;;;;;24.47;23.10;;;;;;;;;;5076858;28;20449;-77
2023/06/04 10:38:08;;;;;;;24.57;23.00;;;;;;;;;;5076594;28;20440;-77
2023/06/04 10:40:35;;;;;;;24.70;23.20;;;;;;;;;;5076631;28;20820;-77
2023/06/04 10:43:07;;;;;;;25.23;23.73;;;;;;;;;;5075730;28;20963;-78
2023/06/04 10:45:34;;;;;;;24.03;22.53;;;;;;;;;;5076489;28;20451;-77
2023/06/04 10:48:02;;;;;;;24.23;22.73;;;;;;;;;;5076975;28;20966;-77
2023/06/04 10:50:29;;;;;;;26.67;24.97;;;;;;;;;;5077369;28;20855;-78
2023/06/04 10:52:57;;;;;;;23.60;22.20;;;;;;;;;;5086062;28;20476;-77
2023/06/04 10:55:24;;;;;;;23.60;22.20;;;;;;;;;;5085351;28;20466;-79
2023/06/04 10:57:55;;;;;;;27.70;26.00;;;;;;;;;;5072054;28;20496;-80
2023/06/04 11:00:24;;;;;;;24.93;23.10;;;;;;;;;;5064095;28;20475;-77
2023/06/04 11:02:52;;;;;;;24.63;23.13;;;;;;;;;;5056024;28;20446;-77
2023/06/04 11:05:19;;;;;;;25.00;23.40;;;;;;;;;;5055541;28;20465;-78
2023/06/04 11:07:47;;;;;;;24.87;23.40;;;;;;;;;;5055438;28;20450;-78
2023/06/04 11:10:15;;;;;;;24.47;22.93;;;;;;;;;;5055796;28;20521;-77
2023/06/04 11:12:45;;;;;;;23.60;22.23;;;;;;;;;;5055774;28;20448;-77
2023/06/04 11:15:12;;;;;;;24.07;22.67;;;;;;;;;;5056376;28;20505;-77
2023/06/04 11:17:50;;;;;;;24.10;22.70;;;;;;;;;;5056052;28;20421;-77
2023/06/04 11:20:18;;;;;;;22.90;21.63;;;;;;;;;;5055515;28;20475;-77
2023/06/04 11:22:51;;;;;;;23.50;22.20;;;;;;;;;;5055372;28;20414;-77
2023/06/04 11:25:19;;;;;;;22.93;21.63;;;;;;;;;;5055568;28;20517;-77
2023/06/04 11:27:46;;;;;;;23.30;21.97;;;;;;;;;;5054884;28;20451;-76
2023/06/04 11:30:14;;;;;;;23.17;21.67;;;;;;;;;;5055650;28;20505;-78
2023/06/04 11:32:42;;;;;;;24.10;22.57;;;;;;;;;;5055899;28;20454;-76
2023/06/04 11:35:11;;;;;;;23.30;21.97;;;;;;;;;;5054803;28;20447;-77
2023/06/04 11:37:38;;;;;;;23.60;22.00;;;;;;;;;;5055337;28;20452;-77
2023/06/04 11:40:17;;;;;;;24.07;22.60;;;;;;;;;;5056128;28;20454;-78
2023/06/04 11:42:44;;;;;;;24.63;23.07;;;;;;;;;;5056518;28;20552;-77
2023/06/04 11:45:11;;;;;;;24.37;22.80;;;;;;;;;;5055760;28;20973;-77
2023/06/04 11:47:38;;;;;;;23.17;21.77;;;;;;;;;;5054521;28;20447;-76
2023/06/04 11:50:08;;;;;;;23.07;21.70;;;;;;;;;;5054961;28;20445;-76
2023/06/04 11:52:35;;;;;;;23.17;21.80;;;;;;;;;;5054568;28;20518;-76
2023/06/04 11:55:02;;;;;;;22.40;21.10;;;;;;;;;;5054945;28;20570;-76
2023/06/04 11:57:30;;;;;;;22.73;21.23;;;;;;;;;;5054391;28;20454;-76
2023/06/04 11:59:58;;;;;;;23.07;21.67;;;;;;;;;;5054788;28;20473;-77
2023/06/04 12:02:25;;;;;;;23.27;21.87;;;;;;;;;;5054938;28;20447;-77
2023/06/04 12:04:52;;;;;;;23.00;21.60;;;;;;;;;;5054675;28;20482;-77
2023/06/04 12:07:24;;;;;;;22.20;20.90;;;;;;;;;;5054272;28;20501;-77
2023/06/04 12:09:51;;;;;;;22.93;21.53;;;;;;;;;;5054948;28;20449;-77
2023/06/04 12:12:23;;;;;;;23.70;22.30;;;;;;;;;;5054886;28;20501;-77
2023/06/04 12:14:57;;;;;;;22.70;21.20;;;;;;;;;;5054733;28;20457;-76
2023/06/04 12:17:24;;;;;;;22.67;21.33;;;;;;;;;;5054013;28;20402;-79
2023/06/04 12:19:52;;;;;;;23.37;21.97;;;;;;;;;;5054911;28;20536;-78
2023/06/04 12:22:19;;;;;;;23.80;22.40;;;;;;;;;;5055682;28;20451;-78
2023/06/04 12:24:53;;;;;;;24.13;22.63;;;;;;;;;;5054497;28;20490;-76
2023/06/04 12:27:21;;;;;;;24.00;22.50;;;;;;;;;;5054004;28;20433;-77
2023/06/04 12:29:55;;;;;;;24.07;22.37;;;;;;;;;;5053762;28;20467;-77
2023/06/04 12:32:22;;;;;;;23.30;22.00;;;;;;;;;;5053730;28;20886;-76
2023/06/04 12:34:49;;;;;;;24.10;22.10;;;;;;;;;;5053567;28;20836;-76
2023/06/04 12:37:16;;;;;;;23.07;21.77;;;;;;;;;;5053344;28;20429;-76
2023/06/04 12:39:43;;;;;;;23.37;22.00;;;;;;;;;;5053408;28;20537;-77
2023/06/04 12:42:12;;;;;;;23.73;22.20;;;;;;;;;;5053647;28;20450;-76
2023/06/04 12:44:39;;;;;;;23.10;21.70;;;;;;;;;;5053184;28;20464;-77
2023/06/04 12:47:06;;;;;;;23.37;22.07;;;;;;;;;;5052976;28;20436;-77
2023/06/04 12:49:34;;;;;;;23.07;21.40;;;;;;;;;;5053615;28;20491;-77
2023/06/04 12:52:01;;;;;;;24.20;22.80;;;;;;;;;;5052783;28;20908;-76
2023/06/04 12:54:28;;;;;;;24.60;23.20;;;;;;;;;;5053617;28;20467;-76
2023/06/04 12:56:56;;;;;;;23.00;21.60;;;;;;;;;;5052273;28;20430;-77
2023/06/04 12:59:25;;;;;;;23.30;21.80;;;;;;;;;;5052445;28;20880;-76
2023/06/04 13:01:52;;;;;;;23.07;21.77;;;;;;;;;;5055375;28;20455;-80
2023/06/04 13:04:19;;;;;;;23.00;21.70;;;;;;;;;;5057667;28;20417;-82
2023/06/04 13:06:46;;;;;;;25.00;23.50;;;;;;;;;;5056678;28;20478;-78
2023/06/04 13:09:14;;;;;;;22.47;21.27;;;;;;;;;;5054539;28;20450;-80
2023/06/04 13:11:41;;;;;;;24.10;22.70;;;;;;;;;;5054349;28;20507;-80
2023/06/04 13:14:09;;;;;;;24.10;22.60;;;;;;;;;;5055479;28;20435;-79
2023/06/04 13:16:38;;;;;;;24.30;22.63;;;;;;;;;;5065986;28;20516;-80
2023/06/04 13:19:05;;;;;;;24.23;22.63;;;;;;;;;;5075117;28;20450;-79
2023/06/04 13:21:36;;;;;;;24.97;23.47;;;;;;;;;;5073935;28;20425;-76
2023/06/04 13:24:03;;;;;;;24.83;23.43;;;;;;;;;;5074518;28;20453;-77
2023/06/04 13:26:30;;;;;;;24.13;22.73;;;;;;;;;;5073268;28;20536;-77
2023/06/04 13:28:57;;;;;;;23.63;22.33;;;;;;;;;;5074424;28;20519;-78
2023/06/04 13:31:24;;;;;;;24.40;22.90;;;;;;;;;;5076385;28;20436;-79
2023/06/04 13:33:52;;;;;;;24.17;22.80;;;;;;;;;;5075464;28;20515;-78
2023/06/04 13:36:19;;;;;;;24.50;23.10;;;;;;;;;;5075330;28;20420;-79
2023/06/04 13:38:47;;;;;;;25.07;23.63;;;;;;;;;;5075898;28;20465;-78
2023/06/04 13:41:14;;;;;;;24.53;23.17;;;;;;;;;;5076202;28;20500;-78
2023/06/04 13:43:40;;;;;;;25.20;23.70;;;;;;;;;;5075204;28;20424;-76
2023/06/04 13:46:07;;;;;;;24.40;22.90;;;;;;;;;;5072778;28;20835;-80
2023/06/04 13:48:34;;;;;;;24.00;22.70;;;;;;;;;;5065021;28;20525;-78
2023/06/04 13:51:03;;;;;;;23.73;22.43;;;;;;;;;;5053985;28;20449;-75
2023/06/04 13:53:33;;;;;;;24.43;23.03;;;;;;;;;;5053115;28;20498;-77
2023/06/04 13:56:00;;;;;;;23.80;22.40;;;;;;;;;;5052046;28;20439;-76
2023/06/04 13:58:27;;;;;;;23.67;22.37;;;;;;;;;;5053955;28;20454;-79
2023/06/04 14:00:54;;;;;;;23.40;22.07;;;;;;;;;;5054590;28;20444;-78
2023/06/04 14:03:21;;;;;;;23.10;21.80;;;;;;;;;;5056688;28;20454;-77
2023/06/04 14:05:49;;;;;;;23.00;21.70;;;;;;;;;;5056004;28;20486;-75
2023/06/04 14:08:17;;;;;;;33.37;30.47;;;;;;;;;;5056623;28;20513;-81
2023/06/04 14:10:44;;;;;;;29.77;27.27;;;;;;;;;;5058349;28;20501;-76
2023/06/04 14:13:11;;;;;;;23.20;21.30;;;;;;;;;;5057372;28;20454;-79
2023/06/04 14:15:39;;;;;;;22.70;21.30;;;;;;;;;;5060259;28;20438;-78
2023/06/04 14:18:07;;;;;;;22.87;21.37;;;;;;;;;;5062137;28;20451;-80
2023/06/04 14:20:35;;;;;;;22.30;21.00;;;;;;;;;;5060765;28;20475;-79